• Join FlightAware (Why Join?)
  • Login
  • US Flag 
10:56AM EDT


 

Airport Tracker/Info


-or-


 

Live Flight TrackerFlight Track Log ✈ SWA620 ✈ 04-Mar-2014 ✈ KLAX - KSMF

Flight Track Log - Related Links

Times and Time Zones

All times are in EST time to prevent confusion due to time zone crossing. See the SWA620 flight status page for this flight to view local times or setup timezone preferences in your user account.

Time Position Orientation Groundspeed Altitude Reporting Facility
EST Latitude Longitude Course Direction KTS MPH feet Rate Location/Type
09:26AM 33.9342 -118.4381 233° Southwest 189 217 1,800  Level Los Angeles Center
09:27AM 33.8967 -118.4986 233° Southwest 233 268 4,700 3,660 Climbing Los Angeles Center
09:28AM 33.8747 -118.5800 252° West 260 299 9,300 3,600 Climbing Los Angeles Center
09:30AM 33.8597 -118.6758 259° West 310 357 12,100 3,240 Climbing Los Angeles Center
09:31AM 33.8636 -118.7953 272° West 351 404 15,900 3,780 Climbing Los Angeles Center
09:32AM 33.9092 -118.8956 299° West 345 397 19,800 3,300 Climbing Los Angeles Center
09:33AM 33.9847 -118.9800 317° Northwest 369 425 22,700 2,820 Climbing Los Angeles Center
09:34AM 34.0589 -119.0672 316° Northwest 374 430 25,600 2,880 Climbing Los Angeles Center
09:35AM 34.1394 -119.1536 318° Northwest 383 441 28,600 3,000 Climbing Los Angeles Center
09:36AM 34.2139 -119.2350 318° Northwest 366 421 31,800 2,160 Climbing Los Angeles Center
09:37AM 34.2856 -119.3139 318° Northwest 351 404 33,000 1,800 Climbing Los Angeles Center
09:38AM 34.3772 -119.3553 340° North 355 409 35,500 2,460 Climbing Los Angeles Center
09:39AM 34.4775 -119.3714 352° North 362 417 38,100 1,680 Climbing Los Angeles Center
09:40AM 34.5722 -119.3894 351° North 347 399 39,000 660 Climbing Los Angeles Center
09:41AM 34.6742 -119.4067 352° North 356 410 39,500 480 Climbing Los Angeles Center
09:42AM 34.8008 -119.4289 352° North 373 429 40,000 240 Climbing Los Angeles Center
09:43AM 34.9103 -119.4497 351° North 392 451 40,000  Level Los Angeles Center
09:44AM 35.0200 -119.4686 352° North 397 457 40,000  Level Los Angeles Center
09:45AM 35.1278 -119.4881 352° North 394 453 40,000  Level Los Angeles Center
09:46AM 35.2364 -119.5083 351° North 397 457 40,000  Level Los Angeles Center
09:47AM 35.3447 -119.5286 351° North 396 456 40,000  Level Los Angeles Center
09:48AM 35.4533 -119.5478 352° North 396 456 40,000  Level Los Angeles Center
09:49AM 35.5600 -119.5683 351° North 393 452 40,000  Level Los Angeles Center
09:50AM 35.6669 -119.5875 352° North 393 452 40,000  Level Oakland Center
09:51AM 35.7747 -119.6072 352° North 394 453 40,000  Level Oakland Center
09:52AM 35.8839 -119.6267 352° North 396 456 40,000  Level Oakland Center
09:53AM 35.9931 -119.6483 351° North 398 458 40,000  Level Oakland Center
09:54AM 36.1000 -119.6714 350° North 394 453 40,000  Level Oakland Center
09:55AM 36.1978 -119.7231 337° Northwest 387 445 40,000  Level Oakland Center
09:56AM 36.2956 -119.7736 337° Northwest 383 441 40,000  Level Oakland Center
09:57AM 36.3925 -119.8214 338° Northwest 379 436 40,000  Level Oakland Center
09:58AM 36.4872 -119.8692 338° Northwest 372 428 40,000 -300 Level Oakland Center
09:59AM 36.5819 -119.9169 338° Northwest 369 425 39,400 -840 Descending Oakland Center
10:00AM 36.6747 -119.9653 337° Northwest 363 418 38,400 -1,500 Descending Oakland Center
10:01AM 36.7611 -120.0094 338° Northwest 340 391 36,400 -1,980 Descending Oakland Center
10:02AM 36.8475 -120.0536 338° Northwest 335 386 34,400 -1,560 Descending Oakland Center
10:03AM 36.9578 -120.1106 338° Northwest 356 410 33,300 -960 Descending Oakland Center
10:04AM 37.0392 -120.1542 337° Northwest 358 412 32,500 -960 Descending Oakland Center
10:05AM 37.1292 -120.1992 338° Northwest 350 403 31,400 -1,500 Descending Oakland Center
10:06AM 37.2194 -120.2467 337° Northwest 351 404 29,500 -2,220 Descending Oakland Center
10:07AM 37.3089 -120.2931 338° Northwest 349 402 27,000 -2,520 Descending Oakland Center
10:08AM 37.4064 -120.3431 338° Northwest 371 427 24,400 -1,860 Descending Oakland Center
10:09AM 37.5056 -120.4339 324° Northwest 364 419 23,300 -1,080 Descending Oakland Center
10:10AM 37.6167 -120.5333 325° Northwest 342 394 21,900 -1,020 Descending Northern Cal TRACON
10:11AM 37.6553 -120.5819 315° West 340 391 21,300 -1,020 Descending Oakland Center
10:12AM 37.7283 -120.6553 322° Northwest 336 387 20,300 -1,020 Descending Oakland Center
10:13AM 37.8028 -120.7303 321° Northwest 340 391 19,300 -900 Descending Oakland Center
10:15AM 37.9347 -120.8925 316° Northwest 331 381 17,600 -900 Descending Oakland Center
10:16AM 38.0000 -120.9756 315° West 331 381 16,600 -1,320 Descending Oakland Center
10:17AM 38.0647 -121.0589 315° West 331 381 15,000 -1,980 Descending Oakland Center
10:18AM 38.1333 -121.1500 314° West 316 364 12,500 -2,220 Descending Northern Cal TRACON
10:19AM 38.2000 -121.2333 316° Northwest 313 360 10,400 -1,740 Descending Northern Cal TRACON
10:20AM 38.2500 -121.3000 314° West 286 329 9,300 -1,620 Descending Northern Cal TRACON
10:21AM 38.3000 -121.3667 314° West 277 319 7,400 -2,100 Descending Northern Cal TRACON
10:22AM 38.3500 -121.4333 314° West 275 316 5,200 -2,040 Descending Northern Cal TRACON
10:23AM 38.4000 -121.5000 314° West 263 303 3,600 -1,140 Descending Northern Cal TRACON
10:24AM 38.4500 -121.5667 314° West 230 265 3,000 -720 Descending Northern Cal TRACON
10:25AM 38.5000 -121.6000 332° Northwest 203 234 2,200 -540 Descending Northern Cal TRACON
10:26AM 38.5500 -121.6000 360° North 184 212 2,000 -240 Descending Northern Cal TRACON
10:27AM 38.6000 -121.6000 360° North 179 206 1,800 -540 Descending Northern Cal TRACON
10:28AM 38.6333 -121.6000 360° North 146 168 1,000 -780 Descending Northern Cal TRACON
10:29AM 38.6667 -121.6000 360° North 122 140 300 -720 Descending Northern Cal TRACON
10:31AM 38.6833 -121.5833 46° Northeast  Level FlightAware Approximate
10:38AM 38.6954 -121.5908 46° Northeast  Level Estimated